Time;durP1;ratioP1;P1;durP2;ratioP2;P2;SDS_P1;SDS_P2;PMS_P1;PMS_P2;Temp;Humidity;BMP_temperature;BMP_pressure;BME280_temperature;BME280_humidity;BME280_pressure;Samples;Min_cycle;Max_cycle;Signal;HPM_P1;HPM_P2
2023/04/07 00:01:22;;;;;;;9.60;6.40;;;;;;;3.55;55.94;63292.03;5031332;28;20227;-55
2023/04/07 00:03:47;;;;;;;7.27;5.70;;;;;;;3.52;55.93;63290.69;5031305;28;20257;-55
2023/04/07 00:06:13;;;;;;;9.87;5.93;;;;;;;3.41;55.02;63277.34;5031144;28;20247;-58
2023/04/07 00:08:38;;;;;;;8.00;5.50;;;;;;;3.60;54.31;63299.38;5013692;28;20213;-59
2023/04/07 00:11:04;;;;;;;8.23;5.47;;;;;;;3.46;54.83;63279.19;5031239;28;20220;-57
2023/04/07 00:13:30;;;;;;;9.63;5.70;;;;;;;3.45;54.61;63283.66;5031202;28;20217;-56
2023/04/07 00:15:55;;;;;;;10.90;6.00;;;;;;;3.53;54.04;63292.34;5031042;28;20203;-56
2023/04/07 00:18:20;;;;;;;7.63;6.03;;;;;;;3.47;54.09;63285.81;5038815;22;20348;-55
2023/04/07 00:20:46;;;;;;;8.00;5.83;;;;;;;3.45;54.23;63283.66;5031189;28;20276;-55
2023/04/07 00:23:11;;;;;;;9.50;5.73;;;;;;;3.49;54.04;63288.00;5030851;28;20217;-53
2023/04/07 00:25:37;;;;;;;9.37;6.10;;;;;;;3.45;54.07;63285.59;5013209;28;20191;-59
2023/04/07 00:28:02;;;;;;;8.67;5.87;;;;;;;3.34;52.86;63272.22;5030918;28;20285;-58
2023/04/07 00:30:28;;;;;;;9.77;6.10;;;;;;;3.39;53.72;63277.13;5031014;28;20333;-66
2023/04/07 00:32:53;;;;;;;8.40;6.57;;;;;;;3.36;53.06;63271.91;5030875;28;20206;-56
2023/04/07 00:35:19;;;;;;;9.10;5.70;;;;;;;3.31;54.05;63268.44;5030770;28;20294;-58
2023/04/07 00:37:44;;;;;;;9.30;6.47;;;;;;;3.36;53.58;63274.41;5030873;28;20186;-59
2023/04/07 00:40:10;;;;;;;7.57;5.80;;;;;;;3.41;53.60;63279.28;5030914;28;20312;-61
2023/04/07 00:42:36;;;;;;;6.67;5.30;;;;;;;3.44;53.44;63282.53;5030540;28;20220;-58
2023/04/07 00:45:01;;;;;;;7.87;5.93;;;;;;;3.45;52.78;63283.66;5030947;28;20190;-55
2023/04/07 00:47:27;;;;;;;10.70;5.90;;;;;;;3.50;52.90;63288.50;5030711;28;20660;-59
2023/04/07 00:49:52;;;;;;;8.13;5.73;;;;;;;3.62;53.39;63299.63;5031187;28;20714;-58
2023/04/07 00:52:18;;;;;;;10.10;6.53;;;;;;;3.82;54.29;63323.28;5030804;28;20191;-60
2023/04/07 00:54:45;;;;;;;18.10;10.27;;;;;;;3.70;61.34;63308.31;5030894;28;20218;-61
2023/04/07 00:57:11;;;;;;;15.50;10.30;;;;;;;3.82;63.96;63323.28;5030794;28;20222;-61
2023/04/07 00:59:36;;;;;;;20.60;12.07;;;;;;;3.50;66.06;63286.03;5030721;28;20244;-55
2023/04/07 01:02:17;;;;;;;23.27;12.37;;;;;;;3.40;67.76;63275.72;5030929;28;20195;-57
2023/04/07 01:04:50;;;;;;;19.50;11.43;;;;;;;3.09;69.14;63239.56;5030751;28;20218;-55
2023/04/07 01:07:26;;;;;;;21.50;11.53;;;;;;;3.17;69.07;63256.25;5033143;28;20190;-55
2023/04/07 01:10:00;;;;;;;20.20;11.37;;;;;;;3.08;69.91;63244.00;5034487;28;20340;-62
2023/04/07 01:12:31;;;;;;;20.53;11.60;;;;;;;3.15;69.75;63248.56;5034102;28;20181;-60
2023/04/07 01:15:09;;;;;;;17.33;11.57;;;;;;;3.25;69.76;63261.91;5016227;28;20226;-67
2023/04/07 01:17:39;;;;;;;18.00;11.33;;;;;;;3.25;69.08;63259.44;5033290;28;20196;-60
2023/04/07 01:20:07;;;;;;;21.00;11.63;;;;;;;3.30;69.79;63265.41;5034042;28;20202;-61
2023/04/07 01:22:42;;;;;;;20.20;11.73;;;;;;;3.19;70.71;63253.44;5033746;28;20765;-60
2023/04/07 01:25:52;;;;;;;17.77;10.13;;;;;;;3.32;68.28;63267.56;5033888;28;20200;-61
2023/04/07 01:28:36;;;;;;;16.67;10.80;;;;;;;3.32;70.67;63272.53;5030483;28;20236;-61
2023/04/07 01:31:04;;;;;;;16.17;10.77;;;;;;;3.28;69.34;63263.22;5033861;28;20193;-55
2023/04/07 01:33:32;;;;;;;18.67;11.60;;;;;;;3.17;71.85;63253.22;5033556;28;20277;-55
2023/04/07 01:36:00;;;;;;;16.53;11.07;;;;;;;3.10;69.69;63245.63;5033377;28;20269;-55
2023/04/07 01:38:28;;;;;;;13.63;9.90;;;;;;;3.16;70.54;63252.69;5033646;28;20211;-56
2023/04/07 01:40:55;;;;;;;13.07;9.37;;;;;;;3.23;70.03;63260.28;5033553;28;20196;-55
2023/04/07 01:43:22;;;;;;;17.00;10.27;;;;;;;3.52;69.33;63288.75;5033672;28;20592;-56
2023/04/07 01:45:49;;;;;;;15.63;11.10;;;;;;;3.36;71.10;63274.41;5033403;28;20224;-56
2023/04/07 01:48:15;;;;;;;17.00;10.77;;;;;;;3.39;71.18;63277.13;5033418;28;20366;-59
2023/04/07 01:50:42;;;;;;;16.57;11.13;;;;;;;3.39;71.68;63277.66;5033545;28;20191;-60
2023/04/07 01:53:08;;;;;;;20.43;11.87;;;;;;;3.35;72.47;63272.78;5033426;28;20303;-62
2023/04/07 01:55:34;;;;;;;19.33;12.20;;;;;;;3.36;73.00;63276.88;5033303;28;20223;-61
2023/04/07 01:58:05;;;;;;;18.07;10.87;;;;;;;3.15;73.98;63251.06;5033316;28;20685;-62
2023/04/07 02:00:30;;;;;;;17.43;11.13;;;;;;;3.49;71.95;63284.94;5015456;28;20198;-60
2023/04/07 02:03:02;;;;;;;16.83;11.33;;;;;;;3.25;73.34;63259.44;5015476;28;20345;-61
2023/04/07 02:05:29;;;;;;;17.00;11.07;;;;;;;3.08;75.49;63240.94;5015627;28;20200;-59
2023/04/07 02:08:00;;;;;;;17.70;10.07;;;;;;;3.22;73.76;63259.19;5033096;28;20217;-59
2023/04/07 02:10:28;;;;;;;17.70;9.87;;;;;;;3.26;71.08;63260.50;5033442;28;20188;-61
2023/04/07 02:12:56;;;;;;;16.77;11.20;;;;;;;3.38;73.26;63271.59;5033139;28;20205;-59
2023/04/07 02:15:23;;;;;;;15.33;9.87;;;;;;;3.46;71.66;63281.69;5032978;28;20221;-60
2023/04/07 02:17:52;;;;;;;16.77;9.80;;;;;;;3.46;71.40;63284.16;5032210;28;20689;-60
2023/04/07 02:20:19;;;;;;;17.53;10.10;;;;;;;3.58;71.58;63297.75;5033185;28;20214;-61
2023/04/07 02:22:46;;;;;;;14.97;10.10;;;;;;;3.70;71.18;63307.75;5015205;28;20195;-61
2023/04/07 02:25:20;;;;;;;13.80;9.37;;;;;;;3.80;70.93;63319.16;5032954;28;20197;-57
2023/04/07 02:27:46;;;;;;;16.77;10.47;;;;;;;3.82;70.63;63323.28;5032717;28;20223;-56
2023/04/07 02:30:12;;;;;;;16.77;10.03;;;;;;;3.87;70.66;63326.78;5033079;28;20184;-55
2023/04/07 02:32:37;;;;;;;18.27;10.83;;;;;;;3.88;70.14;63332.84;5032674;28;20189;-57
2023/04/07 02:35:03;;;;;;;14.20;9.30;;;;;;;3.68;72.66;63305.59;5014926;28;20276;-56
2023/04/07 02:37:31;;;;;;;20.57;11.27;;;;;;;3.73;71.87;63311.56;5032614;28;20222;-57
2023/04/07 02:39:56;;;;;;;24.77;11.90;;;;;;;3.51;73.06;63287.66;5033057;28;20708;-56
2023/04/07 02:42:21;;;;;;;17.70;10.37;;;;;;;3.50;73.74;63283.53;5032569;28;20282;-56
2023/04/07 02:44:47;;;;;;;14.60;9.73;;;;;;;3.71;71.94;63306.38;5032949;28;20599;-55
2023/04/07 02:47:13;;;;;;;14.87;10.37;;;;;;;3.73;72.02;63311.03;5032586;28;20550;-54
2023/04/07 02:49:38;;;;;;;21.37;10.87;;;;;;;3.84;71.86;63326.00;5014717;28;20319;-60
2023/04/07 02:52:03;;;;;;;18.77;11.23;;;;;;;3.87;72.14;63328.72;5014955;28;20226;-60
2023/04/07 02:54:29;;;;;;;21.33;11.20;;;;;;;4.06;71.14;63346.91;5014633;28;20279;-61
2023/04/07 02:56:56;;;;;;;19.77;10.90;;;;;;;3.97;70.67;63339.59;5032288;28;20190;-63
2023/04/07 02:59:21;;;;;;;16.07;11.20;;;;;;;4.02;70.53;63342.56;5032374;28;20393;-56
2023/04/07 03:01:46;;;;;;;18.57;11.70;;;;;;;4.00;70.55;63345.91;5014617;28;20710;-57
2023/04/07 03:04:12;;;;;;;14.87;10.77;;;;;;;3.90;72.03;63329.50;5032718;28;20706;-55
2023/04/07 03:06:37;;;;;;;16.50;10.60;;;;;;;4.15;70.38;63356.69;5032263;28;20317;-55
2023/04/07 03:09:03;;;;;;;17.90;10.27;;;;;;;4.14;70.09;63358.09;5032403;28;20568;-61
2023/04/07 03:11:28;;;;;;;19.67;11.40;;;;;;;3.95;71.16;63337.44;5032157;28;20263;-60
2023/04/07 03:13:54;;;;;;;15.97;10.40;;;;;;;3.97;71.55;63340.16;5032427;28;20264;-56
2023/04/07 03:16:19;;;;;;;16.50;10.53;;;;;;;4.09;71.07;63350.69;5032132;28;20285;-57
2023/04/07 03:18:45;;;;;;;18.80;10.37;;;;;;;4.05;70.97;63348.31;5031984;28;20208;-58
2023/04/07 03:21:10;;;;;;;17.23;11.00;;;;;;;4.04;70.32;63347.22;5032036;28;20187;-55
2023/04/07 03:23:36;;;;;;;16.63;10.93;;;;;;;3.99;70.73;63339.28;5032067;28;20640;-55
2023/04/07 03:26:01;;;;;;;16.17;11.67;;;;;;;3.94;70.38;63338.84;5031996;28;20184;-61
2023/04/07 03:28:27;;;;;;;17.50;11.13;;;;;;;3.77;69.34;63315.38;5032076;28;20291;-60
2023/04/07 03:30:53;;;;;;;16.57;10.40;;;;;;;3.81;70.17;63322.22;5030663;28;20670;-64
2023/04/07 03:33:18;;;;;;;16.47;10.13;;;;;;;3.77;67.24;63317.88;5031909;28;20680;-62
2023/04/07 03:35:43;;;;;;;14.07;9.13;;;;;;;3.72;66.24;63312.41;5014130;28;20299;-60
2023/04/07 03:38:09;;;;;;;11.37;8.07;;;;;;;3.60;63.31;63297.44;5031607;28;20211;-61
2023/04/07 03:40:36;;;;;;;13.10;7.90;;;;;;;3.55;62.28;63292.03;5031657;28;20677;-60
2023/04/07 03:43:02;;;;;;;10.93;7.80;;;;;;;3.58;61.67;63292.78;5031580;28;20198;-60
2023/04/07 03:45:27;;;;;;;11.93;7.70;;;;;;;3.68;62.03;63305.59;5031499;28;20204;-59
2023/04/07 03:47:53;;;;;;;11.13;5.87;;;;;;;3.74;57.96;63314.59;5031432;28;20248;-61
2023/04/07 03:50:18;;;;;;;9.83;5.83;;;;;;;3.61;56.84;63300.47;5013882;28;20193;-59
2023/04/07 03:52:44;;;;;;;6.47;4.73;;;;;;;3.52;55.76;63291.25;5031406;28;20218;-59
2023/04/07 03:55:10;;;;;;;7.67;5.13;;;;;;;3.58;54.93;63297.22;5031386;28;20689;-59
2023/04/07 03:57:35;;;;;;;8.10;4.70;;;;;;;3.58;54.78;63292.22;5031200;28;20324;-59
2023/04/07 04:00:01;;;;;;;6.00;4.60;;;;;;;3.57;55.14;63296.69;5013622;28;20194;-59
2023/04/07 04:02:26;;;;;;;7.47;4.63;;;;;;;3.58;55.22;63297.22;5031306;28;20244;-60
2023/04/07 04:04:52;;;;;;;6.80;5.20;;;;;;;3.69;56.13;63307.22;5031172;28;20751;-59
2023/04/07 04:07:17;;;;;;;6.67;5.10;;;;;;;3.61;55.05;63298.53;5031264;28;20193;-60
2023/04/07 04:09:42;;;;;;;9.27;4.87;;;;;;;4.08;56.43;63349.06;5031679;28;20209;-57
2023/04/07 04:12:08;;;;;;;18.13;9.07;;;;;;;4.17;59.32;63361.91;5031207;28;20270;-59
2023/04/07 04:14:33;;;;;;;18.13;11.67;;;;;;;4.17;63.31;63358.84;5013529;28;20702;-60
2023/04/07 04:16:59;;;;;;;27.00;13.77;;;;;;;4.17;66.43;63358.84;5031336;28;20193;-60
2023/04/07 04:19:25;;;;;;;32.13;15.20;;;;;;;4.33;68.30;63381.25;5031357;28;20259;-60
2023/04/07 04:21:50;;;;;;;27.53;15.10;;;;;;;4.23;70.07;63367.88;5031300;28;20184;-60
2023/04/07 04:24:16;;;;;;;24.53;13.40;;;;;;;4.04;71.55;63347.22;5031150;28;20708;-60
2023/04/07 04:26:41;;;;;;;28.53;14.77;;;;;;;3.99;71.83;63342.31;5031057;28;20201;-59
2023/04/07 04:29:06;;;;;;;22.23;13.07;;;;;;;4.23;72.16;63367.88;5031014;28;20725;-60
2023/04/07 04:31:32;;;;;;;23.77;13.13;;;;;;;4.33;70.61;63378.75;5013288;28;20197;-60
2023/04/07 04:33:58;;;;;;;22.50;13.60;;;;;;;4.24;69.62;63368.97;5031088;28;20210;-59
2023/04/07 04:36:23;;;;;;;20.70;12.67;;;;;;;4.44;70.38;63390.16;5013347;28;20671;-59
2023/04/07 04:38:48;;;;;;;21.67;13.63;;;;;;;4.49;70.10;63395.59;5031020;28;20798;-61
2023/04/07 04:41:14;;;;;;;27.00;12.73;;;;;;;4.42;69.38;63388.00;5032194;28;20190;-64
2023/04/07 04:43:40;;;;;;;23.57;13.63;;;;;;;4.34;69.00;63377.34;5034479;28;20712;-61
2023/04/07 04:46:05;;;;;;;23.27;12.73;;;;;;;4.42;69.68;63385.50;5034460;28;20211;-58
2023/04/07 04:48:31;;;;;;;27.03;13.97;;;;;;;4.54;69.14;63401.03;5034442;28;20241;-55
2023/04/07 04:50:56;;;;;;;27.93;13.43;;;;;;;4.51;68.47;63395.28;5034290;28;20183;-56
2023/04/07 04:53:22;;;;;;;33.20;12.07;;;;;;;4.22;69.30;63366.78;5034160;28;20265;-56
2023/04/07 04:55:50;;;;;;;27.20;13.10;;;;;;;3.96;71.85;63341.03;5016237;28;20207;-56
2023/04/07 04:58:19;;;;;;;17.63;10.30;;;;;;;4.04;70.32;63347.75;5034038;28;20221;-59
2023/04/07 05:00:45;;;;;;;21.33;11.57;;;;;;;3.99;69.23;63339.28;5034024;28;20182;-62
2023/04/07 05:03:10;;;;;;;16.43;10.77;;;;;;;3.79;70.63;63320.59;5034087;28;20253;-63
2023/04/07 05:05:36;;;;;;;18.73;10.27;;;;;;;3.86;71.28;63322.66;5034100;28;20690;-61
2023/04/07 05:08:01;;;;;;;18.23;10.23;;;;;;;4.10;72.03;63354.28;5034045;28;20221;-59
2023/04/07 05:10:26;;;;;;;16.00;10.30;;;;;;;4.14;69.91;63358.09;5033966;28;20186;-60
2023/04/07 05:12:52;;;;;;;13.43;9.20;;;;;;;4.46;68.26;63390.41;5033790;28;20356;-65
2023/04/07 05:15:18;;;;;;;17.07;8.90;;;;;;;4.35;68.21;63380.91;5033711;28;20708;-63
2023/04/07 05:17:43;;;;;;;15.00;10.00;;;;;;;4.11;69.80;63352.88;5033550;28;20273;-62
2023/04/07 05:20:09;;;;;;;19.07;11.80;;;;;;;4.03;70.28;63346.13;5033773;28;20183;-62
2023/04/07 05:22:35;;;;;;;15.07;9.33;;;;;;;4.13;70.06;63357.53;5033536;28;20672;-59
2023/04/07 05:25:00;;;;;;;21.60;10.27;;;;;;;4.35;69.88;63380.38;5033690;28;20293;-61
2023/04/07 05:27:26;;;;;;;18.47;10.40;;;;;;;4.31;70.30;63376.03;5033367;28;20277;-61
2023/04/07 05:29:52;;;;;;;14.60;9.43;;;;;;;4.50;69.22;63394.19;5033441;28;20230;-61
2023/04/07 05:32:18;;;;;;;19.70;10.53;;;;;;;4.58;68.86;63403.44;5033328;28;20194;-61
2023/04/07 05:34:43;;;;;;;18.23;12.10;;;;;;;4.53;69.15;63398.00;5033506;28;20266;-62
2023/04/07 05:37:09;;;;;;;19.20;10.40;;;;;;;4.62;69.33;63407.25;5033510;28;20660;-62
2023/04/07 05:39:34;;;;;;;16.40;10.33;;;;;;;4.84;68.72;63431.19;5033645;28;20217;-61
2023/04/07 05:42:01;;;;;;;18.17;10.50;;;;;;;4.67;69.33;63415.72;5033690;28;20611;-62
2023/04/07 05:44:26;;;;;;;14.83;9.70;;;;;;;4.92;68.80;63442.38;5033639;28;20204;-61
2023/04/07 05:46:52;;;;;;;15.93;9.77;;;;;;;5.50;81.70;63502.47;5033164;28;20218;-62
2023/04/07 05:49:17;;;;;;;14.93;8.87;;;;;;;5.30;68.51;63483.19;5033275;28;20211;-61
2023/04/07 05:51:42;;;;;;;13.27;9.50;;;;;;;5.30;67.58;63481.25;5032877;28;20192;-63
2023/04/07 05:54:08;;;;;;;15.57;9.37;;;;;;;5.43;67.30;63495.41;5032038;28;20202;-61
2023/04/07 05:56:34;;;;;;;16.33;9.63;;;;;;;7.17;67.02;63680.91;5033479;28;20177;-61
2023/04/07 05:59:00;;;;;;;15.07;9.17;;;;;;;6.30;63.55;63589.63;5033089;28;20584;-62
2023/04/07 06:01:26;;;;;;;14.30;9.00;;;;;;;6.05;63.81;63564.34;5033376;28;20212;-61
2023/04/07 06:03:51;;;;;;;10.73;8.37;;;;;;;5.93;63.21;63552.38;5015313;28;20216;-62
2023/04/07 06:06:17;;;;;;;11.83;8.37;;;;;;;5.84;63.26;63540.06;5033130;28;20196;-62
2023/04/07 06:08:42;;;;;;;15.83;9.40;;;;;;;5.85;62.38;63540.63;5033339;28;20326;-62
2023/04/07 06:11:08;;;;;;;12.90;8.77;;;;;;;5.76;63.34;63528.28;5015536;28;20200;-56
2023/04/07 06:13:33;;;;;;;13.67;8.57;;;;;;;5.66;63.64;63517.41;5033136;28;20219;-54
2023/04/07 06:15:59;;;;;;;14.77;8.67;;;;;;;5.62;64.54;63516.09;5033099;28;20674;-58
2023/04/07 06:18:24;;;;;;;11.67;8.17;;;;;;;5.78;64.88;63537.97;5033157;28;20593;-56
2023/04/07 06:20:50;;;;;;;13.87;8.50;;;;;;;5.63;63.40;63516.63;5033034;28;20212;-57
2023/04/07 06:23:15;;;;;;;14.10;8.90;;;;;;;5.53;61.83;63508.25;5032815;28;20221;-57
2023/04/07 06:25:41;;;;;;;14.10;8.27;;;;;;;5.61;62.46;63517.50;5032920;28;20196;-56
2023/04/07 06:28:06;;;;;;;13.80;8.97;;;;;;;5.86;61.88;63544.19;5032991;28;20284;-55
2023/04/07 06:30:33;;;;;;;15.27;9.20;;;;;;;5.74;62.82;63531.66;5032944;28;20566;-56
2023/04/07 06:32:58;;;;;;;15.83;9.33;;;;;;;5.72;61.51;63526.97;5032850;28;20240;-57
2023/04/07 06:35:26;;;;;;;15.90;8.93;;;;;;;5.80;62.42;63537.63;5032716;28;20725;-56
2023/04/07 06:37:51;;;;;;;19.73;10.13;;;;;;;6.00;62.00;63553.91;5032764;28;20224;-56
2023/04/07 06:40:17;;;;;;;14.80;9.10;;;;;;;6.10;60.86;63569.81;5032567;28;20261;-57
2023/04/07 06:42:42;;;;;;;16.97;8.77;;;;;;;6.20;60.52;63576.22;5015037;28;20197;-56
2023/04/07 06:45:09;;;;;;;15.87;9.03;;;;;;;6.13;60.96;63573.63;5032918;28;20216;-56
2023/04/07 06:47:40;;;;;;;14.47;9.97;;;;;;;6.00;62.58;63553.91;5032687;28;20265;-56
2023/04/07 06:50:13;;;;;;;13.13;8.90;;;;;;;6.11;61.58;63573.38;5032608;28;20205;-55
2023/04/07 06:52:38;;;;;;;13.53;9.30;;;;;;;6.37;60.56;63597.28;5032248;28;20224;-54
2023/04/07 06:55:04;;;;;;;12.33;9.07;;;;;;;6.33;60.54;63590.41;5032436;28;20225;-57
2023/04/07 06:57:29;;;;;;;14.97;9.57;;;;;;;6.22;60.31;63580.91;5032332;28;20184;-57
2023/04/07 06:59:55;;;;;;;16.13;8.70;;;;;;;6.14;61.64;63569.69;5014619;28;20616;-60
2023/04/07 07:02:20;;;;;;;11.90;8.83;;;;;;;6.37;60.61;63599.78;5032320;28;20232;-60
2023/04/07 07:04:46;;;;;;;13.57;8.90;;;;;;;6.45;61.01;63607.94;5031937;28;20245;-61
2023/04/07 07:07:11;;;;;;;12.37;8.63;;;;;;;6.68;61.13;63633.56;5032311;28;20200;-61
2023/04/07 07:09:36;;;;;;;15.43;9.17;;;;;;;6.79;59.95;63643.06;5032480;28;20213;-60
2023/04/07 07:12:03;;;;;;;15.23;9.57;;;;;;;6.86;56.71;63652.66;5032229;28;20718;-60
2023/04/07 07:14:28;;;;;;;12.67;8.70;;;;;;;6.81;58.29;63641.66;5032460;28;20233;-56
2023/04/07 07:16:53;;;;;;;14.37;8.87;;;;;;;7.00;56.35;63662.91;5032509;28;20209;-56
2023/04/07 07:19:19;;;;;;;16.97;9.20;;;;;;;6.87;56.24;63650.69;5032531;28;20216;-61
2023/04/07 07:21:44;;;;;;;14.70;9.33;;;;;;;6.84;57.52;63647.97;5032049;28;20193;-60
2023/04/07 07:24:09;;;;;;;18.40;10.07;;;;;;;6.86;56.60;63652.09;5032121;28;20218;-60
2023/04/07 07:26:35;;;;;;;13.87;9.47;;;;;;;6.76;56.00;63639.25;5014396;28;20201;-61
2023/04/07 07:29:00;;;;;;;12.73;9.00;;;;;;;6.86;55.52;63647.09;5031863;28;20741;-61
2023/04/07 07:31:26;;;;;;;13.63;9.63;;;;;;;6.89;55.56;63652.88;5032015;28;20272;-58
2023/04/07 07:33:51;;;;;;;14.67;9.80;;;;;;;7.00;55.98;63667.38;5032255;28;20213;-56
2023/04/07 07:36:17;;;;;;;13.93;9.63;;;;;;;7.32;56.90;63700.31;5031643;28;20696;-57
2023/04/07 07:38:42;;;;;;;11.17;8.83;;;;;;;7.34;54.20;63702.50;5031932;28;20252;-62
2023/04/07 07:41:07;;;;;;;12.93;7.70;;;;;;;7.58;52.17;63728.13;5031654;28;20183;-62
2023/04/07 07:43:33;;;;;;;12.37;5.73;;;;;;;7.12;47.25;63680.44;5013927;28;20691;-60
2023/04/07 07:45:59;;;;;;;6.53;4.23;;;;;;;6.99;46.06;63664.31;5031778;28;20190;-60
2023/04/07 07:48:24;;;;;;;6.93;4.30;;;;;;;6.67;47.01;63632.47;5031373;28;20223;-61
2023/04/07 07:50:51;;;;;;;6.70;4.40;;;;;;;6.60;46.66;63619.28;5031189;28;20186;-60
2023/04/07 07:53:16;;;;;;;6.77;4.33;;;;;;;6.56;46.83;63617.44;5030963;28;20242;-59
2023/04/07 07:55:42;;;;;;;8.87;4.30;;;;;;;6.87;46.18;63650.69;5031049;28;20248;-59
2023/04/07 07:58:08;;;;;;;6.07;4.30;;;;;;;6.97;45.63;63659.09;5030825;28;20307;-60
2023/04/07 08:00:33;;;;;;;6.90;4.20;;;;;;;6.94;45.66;63658.31;5031041;28;20301;-61
2023/04/07 08:02:59;;;;;;;6.83;4.30;;;;;;;6.74;45.28;63637.59;5031288;28;20708;-59
2023/04/07 08:05:25;;;;;;;7.10;4.60;;;;;;;6.61;45.58;63620.38;5013642;28;20725;-59
2023/04/07 08:07:52;;;;;;;4.57;4.03;;;;;;;6.68;45.74;63633.03;5031391;28;20754;-59
2023/04/07 08:10:19;;;;;;;7.87;3.87;;;;;;;6.95;46.17;63661.91;5031367;28;20734;-60
2023/04/07 08:12:44;;;;;;;6.60;3.93;;;;;;;7.20;44.43;63687.22;5031025;28;20704;-61
2023/04/07 08:15:10;;;;;;;13.90;4.60;;;;;;;7.01;44.89;63663.97;5030934;28;20206;-60
2023/04/07 08:17:35;;;;;;;6.17;3.80;;;;;;;6.84;44.86;63647.41;5030764;28;20183;-60
2023/04/07 08:20:02;;;;;;;5.17;3.80;;;;;;;6.74;45.05;63637.59;5013387;28;20214;-56
2023/04/07 08:22:28;;;;;;;5.10;3.47;;;;;;;6.82;45.32;63647.72;5031303;28;20190;-58
2023/04/07 08:24:53;;;;;;;4.67;3.60;;;;;;;6.98;45.20;63662.69;5031215;28;20337;-57
2023/04/07 08:27:20;;;;;;;4.93;3.80;;;;;;;6.85;43.84;63646.00;5013157;28;20197;-56
2023/04/07 08:29:47;;;;;;;6.00;4.30;;;;;;;6.96;44.65;63658.53;5030741;28;20304;-60
2023/04/07 08:32:13;;;;;;;5.63;3.83;;;;;;;7.20;45.38;63686.66;5030907;28;20197;-59
2023/04/07 08:34:38;;;;;;;6.47;4.00;;;;;;;7.05;44.40;63670.84;5030859;28;20615;-60
2023/04/07 08:37:04;;;;;;;6.30;4.43;;;;;;;7.07;44.46;63672.50;5030785;28;20190;-56
2023/04/07 08:39:29;;;;;;;5.53;3.73;;;;;;;7.12;44.68;63677.94;5030598;28;20240;-56
2023/04/07 08:41:56;;;;;;;9.30;4.80;;;;;;;7.27;44.74;63694.84;5012797;28;20228;-56
2023/04/07 08:44:22;;;;;;;5.40;3.93;;;;;;;7.40;44.20;63706.53;5030869;28;20229;-55
2023/04/07 08:46:52;;;;;;;5.80;4.33;;;;;;;7.51;43.85;63721.03;5030586;28;20186;-60
2023/04/07 08:49:20;;;;;;;5.87;3.90;;;;;;;7.66;44.62;63739.38;5030768;28;20214;-58
2023/04/07 08:51:47;;;;;;;6.17;3.73;;;;;;;7.82;43.49;63753.78;5030706;28;20208;-55
2023/04/07 08:54:17;;;;;;;8.43;3.87;;;;;;;7.74;43.94;63742.53;5030451;28;20227;-55
2023/04/07 08:56:43;;;;;;;7.60;4.20;;;;;;;7.38;42.86;63701.84;5012809;28;20185;-55
2023/04/07 08:59:14;;;;;;;10.30;5.07;;;;;;;7.68;42.82;63736.53;5030617;28;20213;-56
2023/04/07 09:01:40;;;;;;;5.33;3.93;;;;;;;7.25;42.96;63695.16;5030268;28;20272;-54
2023/04/07 09:04:07;;;;;;;5.40;3.77;;;;;;;7.71;42.99;63741.78;5030699;28;20355;-56
2023/04/07 09:06:34;;;;;;;6.13;3.80;;;;;;;7.96;42.29;63769.06;5030454;28;20717;-56
2023/04/07 09:09:01;;;;;;;6.80;4.43;;;;;;;7.81;42.20;63750.72;5030271;28;20220;-55
2023/04/07 09:11:28;;;;;;;7.57;4.93;;;;;;;7.62;42.24;63732.50;5030290;28;20684;-54
2023/04/07 09:13:57;;;;;;;4.07;3.53;;;;;;;7.47;43.14;63716.13;5030191;28;20216;-56
2023/04/07 09:16:24;;;;;;;8.53;6.20;;;;;;;7.57;42.09;63727.03;5030198;28;20333;-57
2023/04/07 09:18:50;;;;;;;12.63;7.70;;;;;;;7.82;42.98;63754.31;5030527;28;20726;-55
2023/04/07 09:21:16;;;;;;;8.77;5.97;;;;;;;8.16;42.58;63790.91;5030297;28;20193;-57
2023/04/07 09:23:41;;;;;;;5.03;3.80;;;;;;;7.98;41.42;63771.78;5012384;28;20256;-56
2023/04/07 09:26:27;;;;;;;6.77;3.60;;;;;;;8.53;42.20;63831.31;5030062;28;20198;-58
2023/04/07 09:29:01;;;;;;;5.90;4.20;;;;;;;8.82;42.02;63862.44;5033674;28;20210;-57
2023/04/07 09:31:48;;;;;;;4.70;3.87;;;;;;;8.31;41.41;63805.34;5033958;28;20189;-55
2023/04/07 09:34:27;;;;;;;6.87;4.10;;;;;;;8.26;41.31;63801.84;5033770;28;20206;-56
2023/04/07 09:36:53;;;;;;;5.73;3.80;;;;;;;8.12;41.95;63787.06;5033591;28;20189;-58
2023/04/07 09:39:19;;;;;;;6.13;4.00;;;;;;;8.33;42.31;63809.47;5033597;28;20210;-55
2023/04/07 09:41:45;;;;;;;6.77;4.13;;;;;;;8.24;42.58;63799.63;5033204;28;20186;-56
2023/04/07 09:44:10;;;;;;;11.10;4.77;;;;;;;8.09;42.22;63783.25;5033205;28;20218;-56
2023/04/07 09:46:48;;;;;;;6.10;4.33;;;;;;;8.09;42.85;63780.75;5033267;28;20337;-60
2023/04/07 09:49:13;;;;;;;6.60;4.37;;;;;;;8.32;42.39;63808.41;5033684;28;20212;-62
2023/04/07 09:51:58;;;;;;;6.57;4.17;;;;;;;8.70;43.54;63846.84;5033298;28;20601;-60
2023/04/07 09:54:38;;;;;;;5.63;4.20;;;;;;;8.80;41.29;63857.75;5033282;28;20759;-61
2023/04/07 09:57:06;;;;;;;7.27;4.50;;;;;;;8.17;42.73;63789.47;5033186;28;20252;-60
2023/04/07 09:59:33;;;;;;;7.37;4.23;;;;;;;7.86;43.09;63761.19;5033404;28;20323;-61
2023/04/07 10:01:59;;;;;;;7.83;4.73;;;;;;;7.94;43.92;63769.91;5033050;28;20190;-60
2023/04/07 10:04:26;;;;;;;5.97;4.17;;;;;;;7.86;44.32;63758.69;5033099;28;20332;-61
2023/04/07 10:06:55;;;;;;;8.23;4.67;;;;;;;8.16;43.73;63791.44;5033007;28;20194;-61
2023/04/07 10:09:27;;;;;;;7.30;4.87;;;;;;;8.30;42.86;63804.22;5032624;28;20240;-60
2023/04/07 10:11:55;;;;;;;6.77;4.77;;;;;;;8.48;42.36;63826.41;5032881;28;20202;-61
2023/04/07 10:14:25;;;;;;;6.53;5.10;;;;;;;8.90;43.14;63871.19;5033016;28;20229;-60
2023/04/07 10:16:51;;;;;;;8.10;4.60;;;;;;;8.97;42.30;63879.38;5032697;28;20189;-61
2023/04/07 10:19:18;;;;;;;6.67;5.00;;;;;;;8.71;43.20;63850.44;5032552;28;20217;-59
2023/04/07 10:21:47;;;;;;;6.43;5.00;;;;;;;8.60;42.12;63838.41;5032659;28;20648;-61
2023/04/07 10:24:41;;;;;;;7.40;4.67;;;;;;;8.39;41.91;63816.56;5032615;28;20218;-61
2023/04/07 10:27:10;;;;;;;10.43;4.77;;;;;;;8.13;42.86;63790.69;5032763;28;20178;-61
2023/04/07 10:29:40;;;;;;;8.53;5.33;;;;;;;7.97;43.46;63772.66;5032654;28;20214;-57
2023/04/07 10:32:06;;;;;;;7.23;4.97;;;;;;;8.05;43.11;63776.38;5032628;28;20196;-56
2023/04/07 10:34:47;;;;;;;14.37;9.60;;;;;;;8.35;43.67;63812.22;5033031;28;20688;-57
2023/04/07 10:37:16;;;;;;;6.53;4.47;;;;;;;8.33;43.14;63810.03;5032694;28;20201;-57
2023/04/07 10:39:42;;;;;;;7.93;4.70;;;;;;;8.03;42.81;63776.69;5032395;28;20774;-56
2023/04/07 10:42:36;;;;;;;5.93;4.43;;;;;;;8.11;43.62;63788.50;5014858;28;20285;-58
2023/04/07 10:45:03;;;;;;;6.27;4.60;;;;;;;8.16;43.52;63791.44;5032567;28;20198;-56
2023/04/07 10:47:29;;;;;;;5.83;4.63;;;;;;;8.23;43.57;63796.56;5032365;28;20281;-57
2023/04/07 10:50:19;;;;;;;8.07;5.33;;;;;;;8.15;44.18;63790.34;5032356;28;20279;-58
2023/04/07 10:53:03;;;;;;;11.87;5.83;;;;;;;8.09;45.29;63783.81;5032284;28;20214;-55
2023/04/07 10:55:31;;;;;;;9.07;5.23;;;;;;;8.39;46.49;63816.03;5032241;28;20218;-58
2023/04/07 10:58:21;;;;;;;9.73;5.53;;;;;;;8.61;47.15;63837.00;5032334;28;20269;-59
2023/04/07 11:01:05;;;;;;;6.50;5.50;;;;;;;8.61;47.58;63837.00;5032163;28;20189;-59
2023/04/07 11:03:52;;;;;;;8.27;6.10;;;;;;;8.41;46.00;63818.75;5014369;28;20688;-64
2023/04/07 11:06:17;;;;;;;8.93;5.17;;;;;;;8.48;47.25;63823.88;5032235;28;20194;-58
2023/04/07 11:08:45;;;;;;;6.67;5.13;;;;;;;8.48;46.07;63821.38;5032248;28;20230;-60
2023/04/07 11:11:16;;;;;;;10.03;5.90;;;;;;;8.42;46.47;63817.34;5032080;28;20186;-60
2023/04/07 11:13:46;;;;;;;9.00;5.57;;;;;;;8.72;47.41;63854.03;5014255;28;20209;-57
2023/04/07 11:16:13;;;;;;;7.57;5.13;;;;;;;8.53;45.79;63830.75;5032054;28;20217;-57
2023/04/07 11:18:40;;;;;;;6.00;4.77;;;;;;;8.20;45.42;63795.81;5032041;28;20300;-55
2023/04/07 11:21:06;;;;;;;7.80;4.87;;;;;;;7.89;45.96;63759.47;5031916;28;20209;-57
2023/04/07 11:23:43;;;;;;;7.17;4.83;;;;;;;7.94;46.07;63766.88;5032025;28;20255;-54
2023/04/07 11:26:10;;;;;;;6.40;4.63;;;;;;;8.06;47.91;63783.03;5031735;28;20208;-56
2023/04/07 11:28:46;;;;;;;7.93;5.90;;;;;;;8.09;47.56;63781.28;5032021;28;20301;-55
2023/04/07 11:31:20;;;;;;;7.90;5.20;;;;;;;7.86;47.92;63758.16;5032026;28;20193;-57
2023/04/07 11:33:52;;;;;;;9.80;5.73;;;;;;;8.52;49.06;63829.69;5031826;28;20218;-55
2023/04/07 11:36:26;;;;;;;7.27;5.13;;;;;;;8.74;48.55;63851.75;5031868;28;20276;-56